Terminal Aerodrome Forecast
Issued by NWS

Current Version | Previous Version | Graphics & Text | Print | Product List | Glossary On
Versions: 1 2 3 4 5 6 7 8 9 10 11 12 13 14 15 16 17 18 19 20 21 22 23 24 25
000
FTUS41 KILN 041700
TAFLCK
TAF
KLCK 041738Z 0418/0518 31007KT P6SM SCT016 OVC060
      TEMPO 0418/0421 5SM -SN BR OVC016
     FM042100 32011KT 2SM -SN OVC012
     FM050300 34010KT 4SM -SN BR OVC015
     FM050600 33010KT P6SM SCT018 OVC120
     FM051300 33010KT P6SM BKN025=

USA.gov is the U.S. government's official web portal to all federal, state and local government web resources and services.